createdAt,value
2018-12-08T00:01:23.807Z,68.20
2018-12-08T00:03:50.561Z,70.10
2018-12-08T00:06:17.339Z,63.13
2018-12-08T00:08:44.066Z,61.13
2018-12-08T00:11:10.784Z,64.87
2018-12-08T00:13:37.915Z,62.47
2018-12-08T00:16:04.623Z,64.17
2018-12-08T00:18:31.345Z,60.47
2018-12-08T00:20:58.269Z,60.60
2018-12-08T00:23:24.988Z,60.00
2018-12-08T00:25:51.857Z,54.67
2018-12-08T00:28:18.643Z,60.60
2018-12-08T00:30:51.307Z,55.93
2018-12-08T00:33:18.161Z,54.53
2018-12-08T00:35:45.127Z,56.27
2018-12-08T00:38:11.852Z,52.27
2018-12-08T00:40:38.579Z,55.77
2018-12-08T00:43:05.327Z,51.57
2018-12-08T00:45:32.051Z,47.63
2018-12-08T00:47:58.769Z,51.10
2018-12-08T00:50:25.556Z,55.10
2018-12-08T00:52:52.279Z,52.37
2018-12-08T00:55:19.019Z,51.40
2018-12-08T00:57:45.791Z,49.43
2018-12-08T01:00:12.555Z,47.17
2018-12-08T01:02:39.271Z,54.03
2018-12-08T01:05:06.053Z,49.93
2018-12-08T01:07:32.795Z,50.20
2018-12-08T01:09:59.531Z,48.37
2018-12-08T01:12:26.302Z,45.07
2018-12-08T01:14:53.073Z,52.83
2018-12-08T01:17:19.823Z,51.87
2018-12-08T01:19:46.707Z,50.10
2018-12-08T01:22:13.432Z,46.47
2018-12-08T01:24:40.151Z,50.20
2018-12-08T01:27:07.010Z,44.47
2018-12-08T01:29:33.965Z,45.70
2018-12-08T01:32:00.739Z,44.00
2018-12-08T01:34:27.501Z,42.97
2018-12-08T01:36:54.434Z,47.97
2018-12-08T01:39:21.176Z,46.40
2018-12-08T01:41:47.995Z,45.43
2018-12-08T01:44:14.711Z,43.83
2018-12-08T01:46:41.429Z,45.90
2018-12-08T01:49:08.267Z,46.43
2018-12-08T01:51:34.977Z,46.90
2018-12-08T01:54:01.788Z,45.77
2018-12-08T01:56:28.657Z,43.07
2018-12-08T01:58:55.391Z,44.33
2018-12-08T02:01:22.118Z,43.20
2018-12-08T02:03:48.883Z,40.07
2018-12-08T02:06:15.677Z,42.70
2018-12-08T02:08:42.387Z,43.23
2018-12-08T02:11:09.289Z,41.17
2018-12-08T02:13:36.011Z,42.40
2018-12-08T02:16:02.757Z,45.43
2018-12-08T02:18:29.548Z,40.13
2018-12-08T02:20:56.262Z,44.33
2018-12-08T02:23:22.974Z,50.43
2018-12-08T02:25:49.760Z,43.63
2018-12-08T02:28:16.476Z,43.83
2018-12-08T02:30:43.216Z,40.33
2018-12-08T02:33:10.156Z,41.60
2018-12-08T02:35:36.866Z,37.70
2018-12-08T02:38:03.604Z,39.03
2018-12-08T02:40:30.484Z,39.67
2018-12-08T02:42:57.207Z,40.43
2018-12-08T02:45:23.933Z,39.93
2018-12-08T02:47:50.692Z,33.93
2018-12-08T02:50:17.444Z,35.57
2018-12-08T02:52:44.176Z,38.00
2018-12-08T02:55:10.941Z,34.93
2018-12-08T02:57:37.657Z,34.97
2018-12-08T03:00:05.966Z,38.43
2018-12-08T03:02:32.723Z,32.97
2018-12-08T03:04:59.457Z,35.60
2018-12-08T03:07:26.192Z,35.50
2018-12-08T03:09:52.968Z,35.50
2018-12-08T03:12:19.676Z,35.23
2018-12-08T03:14:46.412Z,33.17
2018-12-08T03:17:13.194Z,33.50
2018-12-08T03:19:40.068Z,36.17
2018-12-08T03:22:06.840Z,34.07
2018-12-08T03:24:33.611Z,34.37
2018-12-08T03:27:00.337Z,34.57
2018-12-08T03:29:27.232Z,34.03
2018-12-08T03:31:53.995Z,34.00
2018-12-08T03:34:20.694Z,35.03
2018-12-08T03:36:47.433Z,34.27
2018-12-08T03:39:14.202Z,37.70
2018-12-08T03:41:40.913Z,34.40
2018-12-08T03:44:07.677Z,31.80
2018-12-08T03:46:34.476Z,39.30
2018-12-08T03:49:01.208Z,37.73
2018-12-08T03:51:27.919Z,35.87
2018-12-08T03:53:54.688Z,35.97
2018-12-08T03:56:21.392Z,33.60
2018-12-08T03:58:48.106Z,37.33
2018-12-08T04:01:14.911Z,35.20
2018-12-08T04:03:41.615Z,36.27
2018-12-08T04:06:08.341Z,39.20
2018-12-08T04:08:35.295Z,37.33
2018-12-08T04:11:02.050Z,41.40
2018-12-08T04:13:28.755Z,37.50
2018-12-08T04:15:55.504Z,36.57
2018-12-08T04:18:22.246Z,38.97
2018-12-08T04:20:48.983Z,41.63
2018-12-08T04:23:15.740Z,37.67
2018-12-08T04:25:42.520Z,38.67
2018-12-08T04:28:09.252Z,37.47
2018-12-08T04:30:35.980Z,36.97
2018-12-08T04:33:02.810Z,37.10
2018-12-08T04:35:29.561Z,38.90
2018-12-08T04:37:56.328Z,40.00
2018-12-08T04:40:23.138Z,39.13
2018-12-08T04:42:49.863Z,44.30
2018-12-08T04:45:16.713Z,43.10
2018-12-08T04:47:43.448Z,44.23
2018-12-08T04:50:10.180Z,44.97
2018-12-08T04:52:36.945Z,42.93
2018-12-08T04:55:03.743Z,46.13
2018-12-08T04:57:30.454Z,43.27
2018-12-08T04:59:57.357Z,48.00
2018-12-08T05:02:24.091Z,43.77
2018-12-08T05:04:50.821Z,47.07
2018-12-08T05:07:17.623Z,45.47
2018-12-08T05:09:44.354Z,43.67
2018-12-08T05:12:11.074Z,49.13
2018-12-08T05:14:37.837Z,42.73
2018-12-08T05:17:04.849Z,44.53
2018-12-08T05:19:31.567Z,43.53
2018-12-08T05:21:58.341Z,48.33
2018-12-08T05:24:25.724Z,46.53
2018-12-08T05:26:52.442Z,47.23
2018-12-08T05:29:19.206Z,45.17
2018-12-08T05:31:46.046Z,48.87
2018-12-08T05:34:12.759Z,51.27
2018-12-08T05:36:39.523Z,48.43
2018-12-08T05:39:06.237Z,45.43
2018-12-08T05:41:32.954Z,49.50
2018-12-08T05:43:59.740Z,47.77
2018-12-08T05:46:26.559Z,48.00
2018-12-08T05:48:53.703Z,54.37
2018-12-08T05:51:20.653Z,51.00
2018-12-08T05:53:47.563Z,52.53
2018-12-08T05:56:14.438Z,46.47
2018-12-08T05:58:41.191Z,53.07
2018-12-08T06:01:07.916Z,48.07
2018-12-08T06:03:34.630Z,47.37
2018-12-08T06:06:01.393Z,49.00
2018-12-08T06:08:28.099Z,49.83
2018-12-08T06:10:54.857Z,53.33
2018-12-08T06:13:21.645Z,51.63
2018-12-08T06:15:48.382Z,50.30
2018-12-08T06:18:15.111Z,49.17
2018-12-08T06:20:41.871Z,54.63
2018-12-08T06:23:08.592Z,52.03
2018-12-08T06:25:35.316Z,53.23
2018-12-08T06:28:04.341Z,50.53
2018-12-08T06:30:31.135Z,55.37
2018-12-08T06:32:57.869Z,51.20
2018-12-08T06:35:24.629Z,53.67
2018-12-08T06:37:51.569Z,55.47
2018-12-08T06:40:18.281Z,54.37
2018-12-08T06:42:45.032Z,55.10
2018-12-08T06:45:11.745Z,63.10
2018-12-08T06:47:38.562Z,54.27
2018-12-08T06:50:06.323Z,47.13
2018-12-08T06:52:33.045Z,50.87
2018-12-08T06:54:59.754Z,43.53
2018-12-08T06:57:26.509Z,43.27
2018-12-08T06:59:53.393Z,41.20
2018-12-08T07:02:20.112Z,36.73
2018-12-08T07:04:47.094Z,37.13
2018-12-08T07:07:13.863Z,30.43
2018-12-08T07:09:40.590Z,30.93
2018-12-08T07:12:07.393Z,38.13
2018-12-08T07:14:34.100Z,39.57
2018-12-08T07:17:00.821Z,34.40
2018-12-08T07:19:27.592Z,29.00
2018-12-08T07:21:54.306Z,28.23
2018-12-08T07:24:21.005Z,30.03
2018-12-08T07:26:47.752Z,28.90
2018-12-08T07:29:14.464Z,28.67
2018-12-08T07:31:41.186Z,20.90
2018-12-08T07:34:07.916Z,20.63
2018-12-08T07:36:34.650Z,14.63
2018-12-08T07:39:01.383Z,20.23
2018-12-08T07:41:28.388Z,21.90
2018-12-08T07:43:55.102Z,16.83
2018-12-08T07:46:21.898Z,18.87
2018-12-08T07:48:48.648Z,15.13
2018-12-08T07:51:15.350Z,22.93
2018-12-08T07:53:42.048Z,18.67
2018-12-08T07:56:08.808Z,17.27
2018-12-08T07:58:35.545Z,13.23
2018-12-08T08:01:02.244Z,16.17
2018-12-08T08:03:29.006Z,10.53
2018-12-08T08:05:55.710Z,15.83
2018-12-08T08:08:23.151Z,17.23
2018-12-08T08:10:49.931Z,11.17
2018-12-08T08:13:16.628Z,14.87
2018-12-08T08:15:43.338Z,12.93
2018-12-08T08:18:10.106Z,15.67
2018-12-08T08:20:36.814Z,12.73
2018-12-08T08:23:03.593Z,10.33
2018-12-08T08:25:30.334Z,10.57
2018-12-08T08:27:57.055Z,15.93
2018-12-08T08:30:23.767Z,12.93
2018-12-08T08:32:50.549Z,16.93
2018-12-08T08:35:17.285Z,22.67
2018-12-08T08:37:44.022Z,22.00
2018-12-08T08:40:10.992Z,23.43
2018-12-08T08:42:37.745Z,22.77
2018-12-08T08:45:04.754Z,25.30
2018-12-08T08:47:31.511Z,23.80
2018-12-08T08:49:58.289Z,19.93
2018-12-08T08:52:25.067Z,20.50
2018-12-08T08:54:51.840Z,18.77
2018-12-08T08:57:18.597Z,22.17
2018-12-08T08:59:45.414Z,22.83
2018-12-08T09:02:12.201Z,19.00
2018-12-08T09:04:38.924Z,16.70
2018-12-08T09:07:05.632Z,17.37
2018-12-08T09:09:32.484Z,17.47
2018-12-08T09:11:59.328Z,22.00
2018-12-08T09:14:26.152Z,25.00
2018-12-08T09:16:53.543Z,24.73
2018-12-08T09:19:20.372Z,22.50
2018-12-08T09:21:47.094Z,20.83
2018-12-08T09:24:13.954Z,19.63
2018-12-08T09:26:40.694Z,19.73
2018-12-08T09:29:07.409Z,18.67
2018-12-08T09:31:34.504Z,17.43
2018-12-08T09:34:01.427Z,20.30
2018-12-08T09:36:28.285Z,18.90
2018-12-08T09:38:55.084Z,16.33
2018-12-08T09:41:21.872Z,16.30
2018-12-08T09:43:48.707Z,14.87
2018-12-08T09:46:15.471Z,14.63
2018-12-08T09:48:42.184Z,14.53
2018-12-08T09:51:09.027Z,15.20
2018-12-08T09:53:35.791Z,13.43
2018-12-08T09:56:02.494Z,11.60
2018-12-08T09:58:29.226Z,10.63
2018-12-08T10:00:56.210Z,13.30
2018-12-08T10:03:22.922Z,14.07
2018-12-08T10:05:49.766Z,12.63
2018-12-08T10:08:16.559Z,12.47
2018-12-08T10:10:43.260Z,16.27
2018-12-08T10:13:10.169Z,14.73
2018-12-08T10:15:37.538Z,13.00
2018-12-08T10:18:04.253Z,14.50
2018-12-08T10:20:30.980Z,14.07
2018-12-08T10:22:57.781Z,14.20
2018-12-08T10:25:24.509Z,18.37
2018-12-08T10:27:51.271Z,21.00
2018-12-08T10:30:18.051Z,19.30
2018-12-08T10:32:44.792Z,12.40
2018-12-08T10:35:11.520Z,16.87
2018-12-08T10:37:38.798Z,17.03
2018-12-08T10:40:06.430Z,13.93
2018-12-08T10:42:33.183Z,14.60
2018-12-08T10:45:02.235Z,9.17
2018-12-08T10:47:28.941Z,6.90
2018-12-08T10:49:55.825Z,12.70
2018-12-08T10:52:22.851Z,8.67
2018-12-08T10:54:49.547Z,9.40
2018-12-08T10:57:16.275Z,13.73
2018-12-08T10:59:43.201Z,9.37
2018-12-08T11:05:18.099Z,6.83
2018-12-08T11:07:44.805Z,4.70
2018-12-08T11:10:11.517Z,5.73
2018-12-08T11:12:38.303Z,7.47
2018-12-08T11:15:05.127Z,8.00
2018-12-08T11:17:31.835Z,7.30
2018-12-08T11:19:58.629Z,10.90
2018-12-08T11:22:25.357Z,11.93
2018-12-08T11:24:52.059Z,8.87
2018-12-08T11:27:19.133Z,8.50
2018-12-08T11:29:45.853Z,7.03
2018-12-08T11:32:12.604Z,9.03
2018-12-08T11:34:39.597Z,10.67
2018-12-08T11:37:06.310Z,8.10
2018-12-08T11:39:33.032Z,7.47
2018-12-08T11:42:00.530Z,12.90
2018-12-08T11:44:27.441Z,12.17
2018-12-08T11:46:54.484Z,13.07
2018-12-08T11:49:21.251Z,13.90
2018-12-08T11:51:48.076Z,15.90
2018-12-08T11:54:14.812Z,12.60
2018-12-08T11:56:41.575Z,14.27
2018-12-08T11:59:08.333Z,16.10
2018-12-08T12:01:35.964Z,17.53
2018-12-08T12:04:02.732Z,16.00
2018-12-08T12:06:29.448Z,21.17
2018-12-08T12:08:56.218Z,21.70
2018-12-08T12:11:22.998Z,23.63
2018-12-08T12:13:49.773Z,24.20
2018-12-08T12:16:20.452Z,26.17
2018-12-08T12:18:47.242Z,23.73
2018-12-08T12:21:13.979Z,25.03
2018-12-08T12:23:40.730Z,28.03
2018-12-08T12:26:07.539Z,30.53
2018-12-08T12:28:34.309Z,26.87
2018-12-08T12:31:01.101Z,25.97
2018-12-08T12:33:27.864Z,26.27
2018-12-08T12:35:54.585Z,22.03
2018-12-08T12:38:21.984Z,19.00
2018-12-08T12:40:48.824Z,17.27
2018-12-08T12:43:15.537Z,14.53
2018-12-08T12:45:42.250Z,17.00
2018-12-08T12:48:09.036Z,21.10
2018-12-08T12:50:35.747Z,18.17
2018-12-08T12:53:02.464Z,20.50
2018-12-08T12:55:29.472Z,19.13
2018-12-08T12:57:56.177Z,16.20
2018-12-08T13:00:22.907Z,18.03
2018-12-08T13:02:49.673Z,13.73
2018-12-08T13:05:16.387Z,18.27
2018-12-08T13:07:43.138Z,23.07
2018-12-08T13:10:09.924Z,17.10
2018-12-08T13:12:36.677Z,22.93
2018-12-08T13:15:03.388Z,19.27
2018-12-08T13:17:30.146Z,19.07
2018-12-08T13:19:56.980Z,20.07
2018-12-08T13:22:23.693Z,22.03
2018-12-08T13:24:50.577Z,22.43
2018-12-08T13:27:17.513Z,25.17
2018-12-08T13:29:44.237Z,23.30
2018-12-08T13:32:11.104Z,25.00
2018-12-08T13:34:37.860Z,22.47
2018-12-08T13:37:04.785Z,23.97
2018-12-08T13:39:31.626Z,29.13
2018-12-08T13:41:58.345Z,26.20
2018-12-08T13:44:34.499Z,26.60
2018-12-08T13:47:01.518Z,27.27
2018-12-08T13:49:28.333Z,21.77
2018-12-08T13:51:55.093Z,25.50
2018-12-08T13:57:17.329Z,24.53
2018-12-08T13:59:46.045Z,23.53
2018-12-08T14:02:12.761Z,25.27
2018-12-08T14:04:39.522Z,26.33
2018-12-08T14:07:06.250Z,27.37
2018-12-08T14:09:33.082Z,20.10
2018-12-08T14:12:00.020Z,24.60
2018-12-08T14:14:26.736Z,22.07
2018-12-08T14:16:53.460Z,23.07
2018-12-08T14:19:20.216Z,26.07
2018-12-08T14:21:46.957Z,25.73
2018-12-08T14:24:13.687Z,29.10
2018-12-08T14:26:40.454Z,35.97
2018-12-08T14:29:07.174Z,35.20
2018-12-08T14:31:33.883Z,30.27
2018-12-08T14:34:00.830Z,34.03
2018-12-08T14:36:27.556Z,27.93
2018-12-08T14:38:57.580Z,29.57
2018-12-08T14:41:23.080Z,29.77
2018-12-08T14:43:49.838Z,30.50
2018-12-08T14:46:20.516Z,27.57
2018-12-08T14:48:47.274Z,29.50
2018-12-08T14:51:13.977Z,31.60
2018-12-08T14:53:40.843Z,34.90
2018-12-08T14:56:07.734Z,34.47
2018-12-08T14:58:34.468Z,33.90
2018-12-08T15:01:01.182Z,38.10
2018-12-08T15:03:27.957Z,35.87
2018-12-08T15:05:54.678Z,33.23
2018-12-08T15:08:21.433Z,36.67
2018-12-08T15:10:48.252Z,33.30
2018-12-08T15:13:14.982Z,35.17
2018-12-08T15:15:41.702Z,34.90
2018-12-08T15:18:08.474Z,30.57
2018-12-08T15:20:35.204Z,27.67
2018-12-08T15:23:02.151Z,31.87
2018-12-08T15:25:28.925Z,29.60
2018-12-08T15:27:55.726Z,29.37
2018-12-08T15:30:22.444Z,30.43
2018-12-08T15:32:49.195Z,34.97
2018-12-08T15:35:15.918Z,41.67
2018-12-08T15:37:42.631Z,44.07
2018-12-08T15:40:09.405Z,42.30
2018-12-08T15:42:36.123Z,42.87
2018-12-08T15:45:03.149Z,36.73
2018-12-08T15:47:30.584Z,43.60
2018-12-08T15:49:57.333Z,42.80
2018-12-08T15:52:24.067Z,36.23
2018-12-08T15:54:55.893Z,44.93
2018-12-08T15:57:22.668Z,46.73
2018-12-08T15:59:49.512Z,44.30
2018-12-08T16:02:21.513Z,44.90
2018-12-08T16:04:48.234Z,42.87
2018-12-08T16:07:14.949Z,54.13
2018-12-08T16:09:41.717Z,49.50
2018-12-08T16:12:08.442Z,51.17
2018-12-08T16:14:35.191Z,59.43
2018-12-08T16:17:02.140Z,55.10
2018-12-08T16:19:28.861Z,71.07
2018-12-08T16:21:55.711Z,63.90
2018-12-08T16:24:27.468Z,70.00
2018-12-08T16:26:54.300Z,69.83
2018-12-08T16:29:21.468Z,60.13
2018-12-08T16:31:48.441Z,59.70
2018-12-08T16:34:15.239Z,67.80
2018-12-08T16:36:42.053Z,63.93
2018-12-08T16:39:08.817Z,67.00
2018-12-08T16:41:35.893Z,64.40
2018-12-08T16:44:02.734Z,65.63
2018-12-08T16:46:30.023Z,73.87
2018-12-08T16:48:56.759Z,64.93
2018-12-08T16:51:23.609Z,65.17
2018-12-08T16:53:50.375Z,68.27
2018-12-08T16:56:17.107Z,63.50
2018-12-08T16:58:43.810Z,70.37
2018-12-08T17:01:10.583Z,64.50
2018-12-08T17:03:37.297Z,58.43
2018-12-08T17:06:04.169Z,52.30
2018-12-08T17:08:31.094Z,54.47
2018-12-08T17:10:57.829Z,61.17
2018-12-08T17:13:24.547Z,67.00
2018-12-08T17:15:51.317Z,81.30
2018-12-08T17:18:18.220Z,72.47
2018-12-08T17:20:44.939Z,75.20
2018-12-08T17:23:11.689Z,75.20
2018-12-08T17:25:38.409Z,65.37
2018-12-08T17:28:05.123Z,68.50
2018-12-08T17:30:31.905Z,74.13
2018-12-08T17:32:58.615Z,71.77
2018-12-08T17:35:25.351Z,66.50
2018-12-08T17:37:52.268Z,74.77
2018-12-08T17:40:19.136Z,93.20
2018-12-08T17:42:45.863Z,103.07
2018-12-08T17:45:12.662Z,85.87
2018-12-08T17:47:39.519Z,71.37
2018-12-08T17:50:06.680Z,129.57
2018-12-08T17:52:33.457Z,175.40
2018-12-08T17:55:00.163Z,55.53
2018-12-08T17:57:26.892Z,47.67
2018-12-08T17:59:53.644Z,53.27
2018-12-08T18:02:20.388Z,47.50
2018-12-08T18:04:47.112Z,53.17
2018-12-08T18:07:13.874Z,55.50
2018-12-08T18:09:40.578Z,53.17
2018-12-08T18:12:07.448Z,58.47
2018-12-08T18:14:34.221Z,66.67
2018-12-08T18:17:00.936Z,64.07
2018-12-08T18:19:27.686Z,64.57
2018-12-08T18:21:59.589Z,64.30
2018-12-08T18:24:26.304Z,68.90
2018-12-08T18:26:53.142Z,58.23
2018-12-08T18:29:19.892Z,56.13
2018-12-08T18:31:46.600Z,51.70
2018-12-08T18:34:13.308Z,49.33
2018-12-08T18:36:40.080Z,37.73
2018-12-08T18:39:06.835Z,33.17
2018-12-08T18:41:33.546Z,34.67
2018-12-08T18:44:00.300Z,31.13
2018-12-08T18:46:27.044Z,33.60
2018-12-08T18:48:53.748Z,30.13
2018-12-08T18:51:20.500Z,30.73
2018-12-08T18:53:47.225Z,30.17
2018-12-08T18:56:14.004Z,30.93
2018-12-08T18:58:42.058Z,24.93
2018-12-08T19:01:08.918Z,25.13
2018-12-08T19:03:35.634Z,25.17
2018-12-08T19:06:02.388Z,20.40
2018-12-08T19:08:29.232Z,22.00
2018-12-08T19:10:55.932Z,21.33
2018-12-08T19:13:22.791Z,21.97
2018-12-08T19:15:49.678Z,21.83
2018-12-08T19:18:16.378Z,21.97
2018-12-08T19:20:43.189Z,21.50
2018-12-08T19:23:09.904Z,21.13
2018-12-08T19:25:36.616Z,20.87
2018-12-08T19:28:03.375Z,18.07
2018-12-08T19:30:30.092Z,21.87
2018-12-08T19:32:56.816Z,23.60
2018-12-08T19:35:23.561Z,25.03
2018-12-08T19:37:50.272Z,20.20
2018-12-08T19:40:16.974Z,23.83
2018-12-08T19:42:43.721Z,22.13
2018-12-08T19:45:10.481Z,20.43
2018-12-08T19:47:37.193Z,22.17
2018-12-08T19:50:04.608Z,20.07
2018-12-08T19:52:31.327Z,17.90
2018-12-08T19:54:58.031Z,22.43
2018-12-08T19:57:24.783Z,21.13
2018-12-08T19:59:51.494Z,19.23
2018-12-08T20:02:18.350Z,21.27
2018-12-08T20:04:45.101Z,23.17
2018-12-08T20:07:12.023Z,21.33
2018-12-08T20:09:38.733Z,20.67
2018-12-08T20:12:06.103Z,23.70
2018-12-08T20:14:32.822Z,29.27
2018-12-08T20:16:59.616Z,21.70
2018-12-08T20:19:26.434Z,22.70
2018-12-08T20:21:53.147Z,26.67
2018-12-08T20:24:20.155Z,24.33
2018-12-08T20:26:46.904Z,27.77
2018-12-08T20:29:13.774Z,22.67
2018-12-08T20:31:40.680Z,21.50
2018-12-08T20:34:07.738Z,21.33
2018-12-08T20:36:34.599Z,23.70
2018-12-08T20:39:01.314Z,20.10
2018-12-08T20:41:28.201Z,26.90
2018-12-08T20:43:54.909Z,20.93
2018-12-08T20:46:22.047Z,19.33
2018-12-08T20:48:49.550Z,21.27
2018-12-08T20:51:16.288Z,22.77
2018-12-08T20:53:43.003Z,24.87
2018-12-08T20:56:09.771Z,20.33
2018-12-08T20:58:36.473Z,18.50
2018-12-08T21:01:03.355Z,14.17
2018-12-08T21:03:30.126Z,14.97
2018-12-08T21:05:56.849Z,17.17
2018-12-08T21:08:23.560Z,17.53
2018-12-08T21:10:50.330Z,15.33
2018-12-08T21:13:17.059Z,17.13
2018-12-08T21:15:43.893Z,16.67
2018-12-08T21:18:10.672Z,25.80
2018-12-08T21:20:37.383Z,21.93
2018-12-08T21:23:06.068Z,20.60
2018-12-08T21:25:33.177Z,16.80
2018-12-08T21:27:59.908Z,18.90
2018-12-08T21:30:26.654Z,16.07
2018-12-08T21:32:53.486Z,21.27
2018-12-08T21:35:20.303Z,22.53
2018-12-08T21:37:47.012Z,22.40
2018-12-08T21:40:18.563Z,19.93
2018-12-08T21:42:45.269Z,20.17
2018-12-08T21:45:11.985Z,22.03
2018-12-08T21:47:38.775Z,20.27
2018-12-08T21:50:05.499Z,19.13
2018-12-08T21:52:32.330Z,20.27
2018-12-08T21:54:59.191Z,18.00
2018-12-08T21:57:25.954Z,18.97
2018-12-08T21:59:52.667Z,16.40
2018-12-08T22:02:19.459Z,18.47
2018-12-08T22:04:46.350Z,21.17
2018-12-08T22:07:13.212Z,30.57
2018-12-08T22:09:40.006Z,27.80
2018-12-08T22:12:06.718Z,27.13
2018-12-08T22:14:35.424Z,20.57
2018-12-08T22:17:02.201Z,19.90
2018-12-08T22:19:28.944Z,22.60
2018-12-08T22:21:55.682Z,25.03
2018-12-08T22:24:22.546Z,21.67
2018-12-08T22:26:49.478Z,24.97
2018-12-08T22:29:16.205Z,24.37
2018-12-08T22:31:42.997Z,24.47
2018-12-08T22:34:09.719Z,22.27
2018-12-08T22:36:36.638Z,27.60
2018-12-08T22:39:04.206Z,27.63
2018-12-08T22:41:31.048Z,26.80
2018-12-08T22:43:57.813Z,23.50
2018-12-08T22:46:24.566Z,26.00
2018-12-08T22:48:51.276Z,24.17
2018-12-08T22:51:18.108Z,21.03
2018-12-08T22:53:44.961Z,15.80
2018-12-08T22:56:11.678Z,16.70
2018-12-08T22:58:38.389Z,14.37
2018-12-08T23:01:05.141Z,14.13
2018-12-08T23:03:31.858Z,14.17
2018-12-08T23:05:58.564Z,14.30
2018-12-08T23:08:25.342Z,14.13
2018-12-08T23:10:52.528Z,13.53
2018-12-08T23:13:23.292Z,12.60
2018-12-08T23:15:50.228Z,15.03
2018-12-08T23:18:16.943Z,17.23
2018-12-08T23:20:43.666Z,15.87
2018-12-08T23:23:10.438Z,18.27
2018-12-08T23:25:37.148Z,17.20
2018-12-08T23:28:04.030Z,15.40
2018-12-08T23:30:30.801Z,16.60
2018-12-08T23:32:57.627Z,17.87
2018-12-08T23:35:24.341Z,15.23
2018-12-08T23:37:51.100Z,15.87
2018-12-08T23:40:17.825Z,15.03
2018-12-08T23:42:44.554Z,14.57
2018-12-08T23:45:11.347Z,15.47
2018-12-08T23:47:38.278Z,12.83
2018-12-08T23:50:05.624Z,16.93
2018-12-08T23:52:32.381Z,13.40
2018-12-08T23:54:59.082Z,14.00
2018-12-08T23:57:25.806Z,14.40
2018-12-08T23:59:52.686Z,12.03
